sensor_id;sensor_type;location;lat;lon;timestamp;P1;durP1;ratioP1;P2;durP2;ratioP2
47737;SDS011;33502;47.182;27.506;2023-02-15T00:01:28;24.77;;;11.05;;
47737;SDS011;33502;47.182;27.506;2023-02-15T00:03:54;22.48;;;11.02;;
47737;SDS011;33502;47.182;27.506;2023-02-15T00:06:20;27.88;;;12.57;;
47737;SDS011;33502;47.182;27.506;2023-02-15T00:08:46;23.95;;;12.82;;
47737;SDS011;33502;47.182;27.506;2023-02-15T00:11:13;32.85;;;14.32;;
47737;SDS011;33502;47.182;27.506;2023-02-15T00:14:04;26.67;;;12.50;;
47737;SDS011;33502;47.182;27.506;2023-02-15T00:16:50;24.88;;;12.82;;
47737;SDS011;33502;47.182;27.506;2023-02-15T00:19:18;23.05;;;11.70;;
47737;SDS011;33502;47.182;27.506;2023-02-15T00:21:45;24.73;;;12.68;;
47737;SDS011;33502;47.182;27.506;2023-02-15T00:24:12;21.52;;;10.82;;
47737;SDS011;33502;47.182;27.506;2023-02-15T00:26:40;29.15;;;13.70;;
47737;SDS011;33502;47.182;27.506;2023-02-15T00:29:06;22.98;;;11.60;;
47737;SDS011;33502;47.182;27.506;2023-02-15T00:31:33;30.25;;;14.82;;
47737;SDS011;33502;47.182;27.506;2023-02-15T00:34:10;26.38;;;15.13;;
47737;SDS011;33502;47.182;27.506;2023-02-15T00:36:42;28.20;;;14.65;;
47737;SDS011;33502;47.182;27.506;2023-02-15T00:39:08;27.08;;;13.85;;
47737;SDS011;33502;47.182;27.506;2023-02-15T00:41:34;25.38;;;13.63;;
47737;SDS011;33502;47.182;27.506;2023-02-15T00:44:01;30.73;;;15.73;;
47737;SDS011;33502;47.182;27.506;2023-02-15T00:46:28;29.05;;;13.35;;
47737;SDS011;33502;47.182;27.506;2023-02-15T00:48:54;25.40;;;14.40;;
47737;SDS011;33502;47.182;27.506;2023-02-15T00:51:20;26.90;;;14.43;;
47737;SDS011;33502;47.182;27.506;2023-02-15T00:53:46;26.77;;;14.63;;
47737;SDS011;33502;47.182;27.506;2023-02-15T00:56:13;28.70;;;14.40;;
47737;SDS011;33502;47.182;27.506;2023-02-15T00:58:38;27.13;;;14.60;;
47737;SDS011;33502;47.182;27.506;2023-02-15T01:01:09;28.73;;;14.35;;
47737;SDS011;33502;47.182;27.506;2023-02-15T01:03:36;28.38;;;14.45;;
47737;SDS011;33502;47.182;27.506;2023-02-15T01:06:02;25.40;;;14.23;;
47737;SDS011;33502;47.182;27.506;2023-02-15T01:08:28;32.50;;;15.25;;
47737;SDS011;33502;47.182;27.506;2023-02-15T01:10:55;26.67;;;13.88;;
47737;SDS011;33502;47.182;27.506;2023-02-15T01:13:21;30.40;;;15.43;;
47737;SDS011;33502;47.182;27.506;2023-02-15T01:15:54;26.40;;;14.63;;
47737;SDS011;33502;47.182;27.506;2023-02-15T01:18:20;25.98;;;14.40;;
47737;SDS011;33502;47.182;27.506;2023-02-15T01:20:48;28.55;;;14.40;;
47737;SDS011;33502;47.182;27.506;2023-02-15T01:23:14;32.47;;;13.45;;
47737;SDS011;33502;47.182;27.506;2023-02-15T01:25:40;27.27;;;15.45;;
47737;SDS011;33502;47.182;27.506;2023-02-15T01:28:06;26.92;;;14.60;;
47737;SDS011;33502;47.182;27.506;2023-02-15T01:30:32;28.88;;;14.35;;
47737;SDS011;33502;47.182;27.506;2023-02-15T01:32:58;26.73;;;14.88;;
47737;SDS011;33502;47.182;27.506;2023-02-15T01:35:26;26.42;;;14.27;;
47737;SDS011;33502;47.182;27.506;2023-02-15T01:37:54;27.70;;;14.40;;
47737;SDS011;33502;47.182;27.506;2023-02-15T01:40:22;27.13;;;15.23;;
47737;SDS011;33502;47.182;27.506;2023-02-15T01:42:53;30.35;;;14.80;;
47737;SDS011;33502;47.182;27.506;2023-02-15T01:45:31;26.63;;;13.73;;
47737;SDS011;33502;47.182;27.506;2023-02-15T01:48:30;28.35;;;14.45;;
47737;SDS011;33502;47.182;27.506;2023-02-15T01:50:53;26.20;;;14.32;;
47737;SDS011;33502;47.182;27.506;2023-02-15T01:53:27;26.45;;;13.65;;
47737;SDS011;33502;47.182;27.506;2023-02-15T01:56:17;26.55;;;15.05;;
47737;SDS011;33502;47.182;27.506;2023-02-15T01:58:49;26.38;;;13.75;;
47737;SDS011;33502;47.182;27.506;2023-02-15T02:01:16;27.35;;;15.02;;
47737;SDS011;33502;47.182;27.506;2023-02-15T02:06:21;26.50;;;14.10;;
47737;SDS011;33502;47.182;27.506;2023-02-15T02:08:47;30.17;;;14.43;;
47737;SDS011;33502;47.182;27.506;2023-02-15T02:11:14;29.40;;;15.57;;
47737;SDS011;33502;47.182;27.506;2023-02-15T02:13:40;29.05;;;14.48;;
47737;SDS011;33502;47.182;27.506;2023-02-15T02:16:11;28.75;;;15.27;;
47737;SDS011;33502;47.182;27.506;2023-02-15T02:24:59;25.42;;;13.68;;
47737;SDS011;33502;47.182;27.506;2023-02-15T02:27:49;28.02;;;13.60;;
47737;SDS011;33502;47.182;27.506;2023-02-15T02:46:53;25.88;;;11.75;;
47737;SDS011;33502;47.182;27.506;2023-02-15T02:52:31;27.20;;;13.98;;
47737;SDS011;33502;47.182;27.506;2023-02-15T02:55:04;26.60;;;13.60;;
47737;SDS011;33502;47.182;27.506;2023-02-15T02:57:33;30.08;;;14.25;;
47737;SDS011;33502;47.182;27.506;2023-02-15T03:00:02;29.50;;;13.10;;
47737;SDS011;33502;47.182;27.506;2023-02-15T03:02:34;29.05;;;14.05;;
47737;SDS011;33502;47.182;27.506;2023-02-15T03:05:05;28.38;;;14.40;;
47737;SDS011;33502;47.182;27.506;2023-02-15T03:07:37;25.52;;;10.90;;
47737;SDS011;33502;47.182;27.506;2023-02-15T03:10:04;25.30;;;11.52;;
47737;SDS011;33502;47.182;27.506;2023-02-15T03:12:33;24.30;;;12.02;;
47737;SDS011;33502;47.182;27.506;2023-02-15T03:15:09;27.25;;;13.35;;
47737;SDS011;33502;47.182;27.506;2023-02-15T03:17:42;25.83;;;11.60;;
47737;SDS011;33502;47.182;27.506;2023-02-15T03:22:53;25.77;;;11.68;;
47737;SDS011;33502;47.182;27.506;2023-02-15T03:25:25;25.35;;;11.73;;
47737;SDS011;33502;47.182;27.506;2023-02-15T03:27:57;26.50;;;12.73;;
47737;SDS011;33502;47.182;27.506;2023-02-15T03:30:29;31.00;;;13.40;;
47737;SDS011;33502;47.182;27.506;2023-02-15T03:32:58;30.35;;;14.15;;
47737;SDS011;33502;47.182;27.506;2023-02-15T03:35:26;26.42;;;11.68;;
47737;SDS011;33502;47.182;27.506;2023-02-15T03:38:01;26.52;;;12.15;;
47737;SDS011;33502;47.182;27.506;2023-02-15T03:40:37;31.05;;;12.32;;
47737;SDS011;33502;47.182;27.506;2023-02-15T03:43:36;24.85;;;12.30;;
47737;SDS011;33502;47.182;27.506;2023-02-15T03:48:54;28.83;;;12.30;;
47737;SDS011;33502;47.182;27.506;2023-02-15T03:51:26;29.33;;;13.40;;
47737;SDS011;33502;47.182;27.506;2023-02-15T03:54:02;23.45;;;11.07;;
47737;SDS011;33502;47.182;27.506;2023-02-15T03:56:39;28.17;;;11.05;;
47737;SDS011;33502;47.182;27.506;2023-02-15T03:59:07;28.80;;;12.73;;
47737;SDS011;33502;47.182;27.506;2023-02-15T04:01:58;26.00;;;11.38;;
47737;SDS011;33502;47.182;27.506;2023-02-15T04:07:05;28.27;;;11.65;;
47737;SDS011;33502;47.182;27.506;2023-02-15T04:09:32;24.85;;;11.45;;
47737;SDS011;33502;47.182;27.506;2023-02-15T04:12:17;24.88;;;12.02;;
47737;SDS011;33502;47.182;27.506;2023-02-15T04:14:42;27.38;;;13.20;;
47737;SDS011;33502;47.182;27.506;2023-02-15T04:17:28;27.10;;;13.25;;
47737;SDS011;33502;47.182;27.506;2023-02-15T04:19:54;29.45;;;11.95;;
47737;SDS011;33502;47.182;27.506;2023-02-15T04:22:38;28.80;;;15.02;;
47737;SDS011;33502;47.182;27.506;2023-02-15T04:25:23;30.10;;;15.05;;
47737;SDS011;33502;47.182;27.506;2023-02-15T04:27:50;30.70;;;14.85;;
47737;SDS011;33502;47.182;27.506;2023-02-15T04:30:17;30.92;;;15.18;;
47737;SDS011;33502;47.182;27.506;2023-02-15T04:32:45;30.42;;;15.90;;
47737;SDS011;33502;47.182;27.506;2023-02-15T04:35:11;28.17;;;15.18;;
47737;SDS011;33502;47.182;27.506;2023-02-15T04:37:38;30.65;;;14.27;;
47737;SDS011;33502;47.182;27.506;2023-02-15T04:40:05;27.13;;;11.98;;
47737;SDS011;33502;47.182;27.506;2023-02-15T04:42:32;33.50;;;12.85;;
47737;SDS011;33502;47.182;27.506;2023-02-15T04:44:58;27.50;;;12.75;;
47737;SDS011;33502;47.182;27.506;2023-02-15T04:47:23;25.27;;;11.65;;
47737;SDS011;33502;47.182;27.506;2023-02-15T04:49:49;26.55;;;12.00;;
47737;SDS011;33502;47.182;27.506;2023-02-15T04:52:15;30.27;;;12.10;;
47737;SDS011;33502;47.182;27.506;2023-02-15T04:54:43;30.45;;;11.85;;
47737;SDS011;33502;47.182;27.506;2023-02-15T04:57:09;25.58;;;12.05;;
47737;SDS011;33502;47.182;27.506;2023-02-15T04:59:35;30.05;;;11.63;;
47737;SDS011;33502;47.182;27.506;2023-02-15T05:02:01;25.63;;;11.75;;
47737;SDS011;33502;47.182;27.506;2023-02-15T05:04:27;26.88;;;12.00;;
47737;SDS011;33502;47.182;27.506;2023-02-15T05:06:53;30.13;;;13.38;;
47737;SDS011;33502;47.182;27.506;2023-02-15T05:09:18;31.10;;;12.15;;
47737;SDS011;33502;47.182;27.506;2023-02-15T05:11:44;26.55;;;11.52;;
47737;SDS011;33502;47.182;27.506;2023-02-15T05:14:10;26.35;;;12.50;;
47737;SDS011;33502;47.182;27.506;2023-02-15T05:16:36;25.35;;;12.02;;
47737;SDS011;33502;47.182;27.506;2023-02-15T05:19:02;31.60;;;11.27;;
47737;SDS011;33502;47.182;27.506;2023-02-15T05:21:28;26.23;;;12.73;;
47737;SDS011;33502;47.182;27.506;2023-02-15T05:23:54;26.02;;;10.85;;
47737;SDS011;33502;47.182;27.506;2023-02-15T05:26:20;27.88;;;12.30;;
47737;SDS011;33502;47.182;27.506;2023-02-15T05:29:06;27.02;;;12.90;;
47737;SDS011;33502;47.182;27.506;2023-02-15T05:31:33;28.80;;;12.77;;
47737;SDS011;33502;47.182;27.506;2023-02-15T05:33:59;29.13;;;14.25;;
47737;SDS011;33502;47.182;27.506;2023-02-15T05:36:25;29.77;;;13.73;;
47737;SDS011;33502;47.182;27.506;2023-02-15T05:38:51;26.25;;;13.82;;
47737;SDS011;33502;47.182;27.506;2023-02-15T05:41:17;28.80;;;13.90;;
47737;SDS011;33502;47.182;27.506;2023-02-15T05:43:43;31.67;;;15.18;;
47737;SDS011;33502;47.182;27.506;2023-02-15T05:46:09;31.20;;;16.15;;
47737;SDS011;33502;47.182;27.506;2023-02-15T05:48:35;21.42;;;12.68;;
47737;SDS011;33502;47.182;27.506;2023-02-15T05:53:30;26.70;;;14.57;;
47737;SDS011;33502;47.182;27.506;2023-02-15T05:55:57;22.42;;;14.00;;
47737;SDS011;33502;47.182;27.506;2023-02-15T05:58:28;26.25;;;14.18;;
47737;SDS011;33502;47.182;27.506;2023-02-15T06:00:55;23.77;;;13.18;;
47737;SDS011;33502;47.182;27.506;2023-02-15T06:03:22;20.85;;;12.82;;
47737;SDS011;33502;47.182;27.506;2023-02-15T06:05:48;22.13;;;13.90;;
47737;SDS011;33502;47.182;27.506;2023-02-15T06:08:14;20.80;;;12.57;;
47737;SDS011;33502;47.182;27.506;2023-02-15T06:10:40;24.67;;;12.40;;
47737;SDS011;33502;47.182;27.506;2023-02-15T06:13:06;22.40;;;12.90;;
47737;SDS011;33502;47.182;27.506;2023-02-15T06:15:32;21.88;;;12.75;;
47737;SDS011;33502;47.182;27.506;2023-02-15T06:17:58;24.48;;;12.98;;
47737;SDS011;33502;47.182;27.506;2023-02-15T06:20:24;21.00;;;12.75;;
47737;SDS011;33502;47.182;27.506;2023-02-15T06:22:50;17.75;;;12.93;;
47737;SDS011;33502;47.182;27.506;2023-02-15T06:25:15;22.42;;;12.45;;
47737;SDS011;33502;47.182;27.506;2023-02-15T06:27:41;23.48;;;14.30;;
47737;SDS011;33502;47.182;27.506;2023-02-15T06:30:08;22.95;;;13.50;;
47737;SDS011;33502;47.182;27.506;2023-02-15T06:32:35;19.17;;;12.15;;
47737;SDS011;33502;47.182;27.506;2023-02-15T06:35:01;19.50;;;12.00;;
47737;SDS011;33502;47.182;27.506;2023-02-15T06:37:27;19.38;;;13.27;;
47737;SDS011;33502;47.182;27.506;2023-02-15T06:39:53;20.15;;;13.32;;
47737;SDS011;33502;47.182;27.506;2023-02-15T06:42:19;20.77;;;13.05;;
47737;SDS011;33502;47.182;27.506;2023-02-15T06:44:45;19.05;;;12.05;;
47737;SDS011;33502;47.182;27.506;2023-02-15T06:47:10;25.50;;;13.98;;
47737;SDS011;33502;47.182;27.506;2023-02-15T06:49:37;25.13;;;14.35;;
47737;SDS011;33502;47.182;27.506;2023-02-15T06:52:03;20.00;;;13.63;;
47737;SDS011;33502;47.182;27.506;2023-02-15T06:54:29;22.63;;;13.50;;
47737;SDS011;33502;47.182;27.506;2023-02-15T06:56:55;22.67;;;13.32;;
47737;SDS011;33502;47.182;27.506;2023-02-15T06:59:21;22.25;;;13.55;;
47737;SDS011;33502;47.182;27.506;2023-02-15T07:01:47;21.45;;;12.95;;
47737;SDS011;33502;47.182;27.506;2023-02-15T07:04:14;19.58;;;13.05;;
47737;SDS011;33502;47.182;27.506;2023-02-15T07:06:40;23.60;;;13.55;;
47737;SDS011;33502;47.182;27.506;2023-02-15T07:09:06;20.80;;;11.95;;
47737;SDS011;33502;47.182;27.506;2023-02-15T07:11:32;19.30;;;12.30;;
47737;SDS011;33502;47.182;27.506;2023-02-15T07:14:16;24.08;;;13.00;;
47737;SDS011;33502;47.182;27.506;2023-02-15T07:16:42;21.30;;;12.65;;
47737;SDS011;33502;47.182;27.506;2023-02-15T07:19:08;18.88;;;12.52;;
47737;SDS011;33502;47.182;27.506;2023-02-15T07:21:34;18.63;;;12.73;;
47737;SDS011;33502;47.182;27.506;2023-02-15T07:24:00;20.58;;;13.93;;
47737;SDS011;33502;47.182;27.506;2023-02-15T07:26:27;20.48;;;12.45;;
47737;SDS011;33502;47.182;27.506;2023-02-15T07:28:52;18.50;;;13.07;;
47737;SDS011;33502;47.182;27.506;2023-02-15T07:31:18;19.42;;;12.95;;
47737;SDS011;33502;47.182;27.506;2023-02-15T07:33:44;20.17;;;11.80;;
47737;SDS011;33502;47.182;27.506;2023-02-15T07:36:10;19.33;;;13.02;;
47737;SDS011;33502;47.182;27.506;2023-02-15T07:38:38;15.90;;;11.15;;
47737;SDS011;33502;47.182;27.506;2023-02-15T07:41:06;16.10;;;11.82;;
47737;SDS011;33502;47.182;27.506;2023-02-15T07:43:37;20.63;;;12.93;;
47737;SDS011;33502;47.182;27.506;2023-02-15T07:46:05;16.88;;;12.05;;
47737;SDS011;33502;47.182;27.506;2023-02-15T07:48:33;16.42;;;12.35;;
47737;SDS011;33502;47.182;27.506;2023-02-15T07:51:03;17.75;;;12.07;;
47737;SDS011;33502;47.182;27.506;2023-02-15T07:53:30;19.25;;;11.77;;
47737;SDS011;33502;47.182;27.506;2023-02-15T07:56:00;16.77;;;11.57;;
47737;SDS011;33502;47.182;27.506;2023-02-15T07:58:27;16.13;;;10.50;;
47737;SDS011;33502;47.182;27.506;2023-02-15T08:01:12;16.27;;;11.88;;
47737;SDS011;33502;47.182;27.506;2023-02-15T08:03:38;19.98;;;11.13;;
47737;SDS011;33502;47.182;27.506;2023-02-15T08:06:05;13.40;;;9.93;;
47737;SDS011;33502;47.182;27.506;2023-02-15T08:08:31;18.00;;;10.65;;
47737;SDS011;33502;47.182;27.506;2023-02-15T08:13:49;14.80;;;10.73;;
47737;SDS011;33502;47.182;27.506;2023-02-15T08:16:23;15.82;;;10.63;;
47737;SDS011;33502;47.182;27.506;2023-02-15T08:18:51;13.87;;;10.27;;
47737;SDS011;33502;47.182;27.506;2023-02-15T08:21:17;18.58;;;11.77;;
47737;SDS011;33502;47.182;27.506;2023-02-15T08:23:44;15.32;;;11.00;;
47737;SDS011;33502;47.182;27.506;2023-02-15T08:26:10;14.60;;;9.88;;
47737;SDS011;33502;47.182;27.506;2023-02-15T08:28:36;14.80;;;8.93;;
47737;SDS011;33502;47.182;27.506;2023-02-15T08:31:08;13.60;;;9.57;;
47737;SDS011;33502;47.182;27.506;2023-02-15T08:33:35;12.65;;;9.02;;
47737;SDS011;33502;47.182;27.506;2023-02-15T08:36:07;13.70;;;9.02;;
47737;SDS011;33502;47.182;27.506;2023-02-15T08:38:35;15.40;;;9.52;;
47737;SDS011;33502;47.182;27.506;2023-02-15T08:43:47;12.75;;;7.80;;
47737;SDS011;33502;47.182;27.506;2023-02-15T08:46:16;13.15;;;8.18;;
47737;SDS011;33502;47.182;27.506;2023-02-15T08:48:42;14.05;;;8.88;;
47737;SDS011;33502;47.182;27.506;2023-02-15T08:51:09;12.63;;;8.85;;
47737;SDS011;33502;47.182;27.506;2023-02-15T08:53:41;13.00;;;9.23;;
47737;SDS011;33502;47.182;27.506;2023-02-15T08:56:08;13.65;;;8.98;;
47737;SDS011;33502;47.182;27.506;2023-02-15T08:58:34;14.88;;;9.88;;
47737;SDS011;33502;47.182;27.506;2023-02-15T09:01:00;13.43;;;9.05;;
47737;SDS011;33502;47.182;27.506;2023-02-15T09:03:29;14.90;;;9.55;;
47737;SDS011;33502;47.182;27.506;2023-02-15T09:05:59;13.48;;;9.20;;
47737;SDS011;33502;47.182;27.506;2023-02-15T09:08:26;14.13;;;8.45;;
47737;SDS011;33502;47.182;27.506;2023-02-15T09:10:53;14.32;;;10.25;;
47737;SDS011;33502;47.182;27.506;2023-02-15T09:13:19;18.45;;;10.60;;
47737;SDS011;33502;47.182;27.506;2023-02-15T09:15:46;16.85;;;9.98;;
47737;SDS011;33502;47.182;27.506;2023-02-15T09:18:12;12.73;;;9.10;;
47737;SDS011;33502;47.182;27.506;2023-02-15T09:20:42;13.68;;;8.73;;
47737;SDS011;33502;47.182;27.506;2023-02-15T09:23:09;16.38;;;8.80;;
47737;SDS011;33502;47.182;27.506;2023-02-15T09:25:35;12.77;;;8.00;;
47737;SDS011;33502;47.182;27.506;2023-02-15T09:28:01;16.23;;;8.88;;
47737;SDS011;33502;47.182;27.506;2023-02-15T09:30:26;15.15;;;9.30;;
47737;SDS011;33502;47.182;27.506;2023-02-15T09:32:52;8.48;;;5.65;;
47737;SDS011;33502;47.182;27.506;2023-02-15T09:35:18;9.27;;;5.68;;
47737;SDS011;33502;47.182;27.506;2023-02-15T09:37:43;7.90;;;5.90;;
47737;SDS011;33502;47.182;27.506;2023-02-15T09:40:11;7.93;;;5.68;;
47737;SDS011;33502;47.182;27.506;2023-02-15T09:54:06;8.88;;;5.40;;
47737;SDS011;33502;47.182;27.506;2023-02-15T09:56:50;14.23;;;6.68;;
47737;SDS011;33502;47.182;27.506;2023-02-15T10:13:17;7.28;;;4.85;;
47737;SDS011;33502;47.182;27.506;2023-02-15T10:27:29;8.27;;;5.93;;
47737;SDS011;33502;47.182;27.506;2023-02-15T10:30:12;10.13;;;5.32;;
47737;SDS011;33502;47.182;27.506;2023-02-15T10:32:58;12.20;;;6.13;;
47737;SDS011;33502;47.182;27.506;2023-02-15T10:44:19;10.40;;;5.75;;
47737;SDS011;33502;47.182;27.506;2023-02-15T10:47:11;9.75;;;5.15;;
47737;SDS011;33502;47.182;27.506;2023-02-15T10:58:28;8.23;;;5.00;;
47737;SDS011;33502;47.182;27.506;2023-02-15T11:06:24;10.18;;;6.07;;
47737;SDS011;33502;47.182;27.506;2023-02-15T11:08:57;11.93;;;6.18;;
47737;SDS011;33502;47.182;27.506;2023-02-15T11:11:28;10.00;;;6.43;;
47737;SDS011;33502;47.182;27.506;2023-02-15T11:13:59;11.95;;;6.15;;
47737;SDS011;33502;47.182;27.506;2023-02-15T11:16:39;7.78;;;5.85;;
47737;SDS011;33502;47.182;27.506;2023-02-15T11:19:11;8.88;;;5.47;;
47737;SDS011;33502;47.182;27.506;2023-02-15T11:21:51;11.18;;;5.97;;
47737;SDS011;33502;47.182;27.506;2023-02-15T11:24:20;13.75;;;6.28;;
47737;SDS011;33502;47.182;27.506;2023-02-15T11:26:51;8.80;;;5.75;;
47737;SDS011;33502;47.182;27.506;2023-02-15T11:29:32;9.15;;;5.03;;
47737;SDS011;33502;47.182;27.506;2023-02-15T11:32:17;13.38;;;6.25;;
47737;SDS011;33502;47.182;27.506;2023-02-15T11:34:51;12.35;;;6.95;;
47737;SDS011;33502;47.182;27.506;2023-02-15T11:37:24;7.93;;;5.40;;
47737;SDS011;33502;47.182;27.506;2023-02-15T11:39:57;10.07;;;5.88;;
47737;SDS011;33502;47.182;27.506;2023-02-15T11:42:25;8.32;;;5.93;;
47737;SDS011;33502;47.182;27.506;2023-02-15T11:47:23;9.50;;;5.30;;
47737;SDS011;33502;47.182;27.506;2023-02-15T11:49:48;8.38;;;5.97;;
47737;SDS011;33502;47.182;27.506;2023-02-15T11:52:14;12.85;;;5.78;;
47737;SDS011;33502;47.182;27.506;2023-02-15T11:54:46;8.52;;;5.40;;
47737;SDS011;33502;47.182;27.506;2023-02-15T11:57:19;7.75;;;4.28;;
47737;SDS011;33502;47.182;27.506;2023-02-15T11:59:47;9.60;;;6.63;;
47737;SDS011;33502;47.182;27.506;2023-02-15T12:02:19;8.95;;;5.75;;
47737;SDS011;33502;47.182;27.506;2023-02-15T12:08:03;11.48;;;5.93;;
47737;SDS011;33502;47.182;27.506;2023-02-15T12:10:42;9.68;;;5.75;;
47737;SDS011;33502;47.182;27.506;2023-02-15T12:13:25;8.25;;;5.68;;
47737;SDS011;33502;47.182;27.506;2023-02-15T12:15:52;9.48;;;6.00;;
47737;SDS011;33502;47.182;27.506;2023-02-15T12:21:07;8.90;;;5.57;;
47737;SDS011;33502;47.182;27.506;2023-02-15T12:23:46;8.13;;;5.10;;
47737;SDS011;33502;47.182;27.506;2023-02-15T12:26:15;9.93;;;5.35;;
47737;SDS011;33502;47.182;27.506;2023-02-15T12:28:50;8.30;;;5.40;;
47737;SDS011;33502;47.182;27.506;2023-02-15T12:31:28;8.73;;;5.65;;
47737;SDS011;33502;47.182;27.506;2023-02-15T12:34:03;7.88;;;4.90;;
47737;SDS011;33502;47.182;27.506;2023-02-15T12:36:42;14.32;;;5.97;;
47737;SDS011;33502;47.182;27.506;2023-02-15T12:39:23;11.18;;;5.43;;
47737;SDS011;33502;47.182;27.506;2023-02-15T12:44:26;9.07;;;5.53;;
47737;SDS011;33502;47.182;27.506;2023-02-15T12:49:33;11.10;;;5.20;;
47737;SDS011;33502;47.182;27.506;2023-02-15T12:54:47;7.40;;;4.80;;
47737;SDS011;33502;47.182;27.506;2023-02-15T12:59:49;7.45;;;4.65;;
47737;SDS011;33502;47.182;27.506;2023-02-15T13:02:21;7.40;;;3.70;;
47737;SDS011;33502;47.182;27.506;2023-02-15T13:04:48;8.05;;;4.30;;
47737;SDS011;33502;47.182;27.506;2023-02-15T13:07:15;7.05;;;4.22;;
47737;SDS011;33502;47.182;27.506;2023-02-15T13:09:41;7.18;;;3.80;;
47737;SDS011;33502;47.182;27.506;2023-02-15T13:14:53;6.07;;;3.72;;
47737;SDS011;33502;47.182;27.506;2023-02-15T13:17:29;8.10;;;4.63;;
47737;SDS011;33502;47.182;27.506;2023-02-15T13:20:30;4.82;;;3.42;;
47737;SDS011;33502;47.182;27.506;2023-02-15T13:22:50;7.47;;;4.35;;
47737;SDS011;33502;47.182;27.506;2023-02-15T13:25:28;7.05;;;4.47;;
47737;SDS011;33502;47.182;27.506;2023-02-15T13:28:03;9.30;;;4.65;;
47737;SDS011;33502;47.182;27.506;2023-02-15T13:30:31;6.40;;;4.25;;
47737;SDS011;33502;47.182;27.506;2023-02-15T13:33:12;6.43;;;3.95;;
47737;SDS011;33502;47.182;27.506;2023-02-15T13:36:34;6.68;;;4.28;;
47737;SDS011;33502;47.182;27.506;2023-02-15T13:52:13;6.25;;;3.75;;
47737;SDS011;33502;47.182;27.506;2023-02-15T13:54:53;6.40;;;4.35;;
47737;SDS011;33502;47.182;27.506;2023-02-15T14:00:21;7.88;;;3.33;;
47737;SDS011;33502;47.182;27.506;2023-02-15T14:06:08;5.85;;;3.40;;
47737;SDS011;33502;47.182;27.506;2023-02-15T14:19:57;5.63;;;4.40;;
47737;SDS011;33502;47.182;27.506;2023-02-15T14:26:05;6.07;;;3.97;;
47737;SDS011;33502;47.182;27.506;2023-02-15T14:28:46;6.70;;;3.20;;
47737;SDS011;33502;47.182;27.506;2023-02-15T14:31:21;5.50;;;3.58;;
47737;SDS011;33502;47.182;27.506;2023-02-15T14:33:56;5.53;;;3.22;;
47737;SDS011;33502;47.182;27.506;2023-02-15T14:36:23;6.35;;;3.67;;
47737;SDS011;33502;47.182;27.506;2023-02-15T14:39:06;7.00;;;4.07;;
47737;SDS011;33502;47.182;27.506;2023-02-15T14:42:09;5.75;;;3.50;;
47737;SDS011;33502;47.182;27.506;2023-02-15T14:45:01;7.35;;;3.28;;
47737;SDS011;33502;47.182;27.506;2023-02-15T14:47:40;6.47;;;3.72;;
47737;SDS011;33502;47.182;27.506;2023-02-15T14:53:38;9.23;;;3.75;;
47737;SDS011;33502;47.182;27.506;2023-02-15T15:01:14;6.47;;;3.60;;
47737;SDS011;33502;47.182;27.506;2023-02-15T15:03:48;6.55;;;3.55;;
47737;SDS011;33502;47.182;27.506;2023-02-15T15:06:29;6.30;;;4.00;;
47737;SDS011;33502;47.182;27.506;2023-02-15T15:09:08;6.53;;;3.80;;
47737;SDS011;33502;47.182;27.506;2023-02-15T15:11:37;69.28;;;29.15;;
47737;SDS011;33502;47.182;27.506;2023-02-15T15:14:05;9.00;;;4.88;;
47737;SDS011;33502;47.182;27.506;2023-02-15T15:19:02;5.90;;;3.40;;
47737;SDS011;33502;47.182;27.506;2023-02-15T15:32:41;8.57;;;4.10;;
47737;SDS011;33502;47.182;27.506;2023-02-15T15:38:22;10.95;;;6.38;;
47737;SDS011;33502;47.182;27.506;2023-02-15T15:46:23;20.98;;;9.23;;
47737;SDS011;33502;47.182;27.506;2023-02-15T15:49:21;12.73;;;6.00;;
47737;SDS011;33502;47.182;27.506;2023-02-15T15:51:48;12.13;;;5.25;;
47737;SDS011;33502;47.182;27.506;2023-02-15T15:54:18;14.98;;;6.13;;
47737;SDS011;33502;47.182;27.506;2023-02-15T15:56:59;16.40;;;6.85;;
47737;SDS011;33502;47.182;27.506;2023-02-15T15:59:29;10.73;;;5.40;;
47737;SDS011;33502;47.182;27.506;2023-02-15T16:02:03;7.95;;;4.53;;
47737;SDS011;33502;47.182;27.506;2023-02-15T16:04:33;8.35;;;4.28;;
47737;SDS011;33502;47.182;27.506;2023-02-15T16:10:00;6.25;;;3.70;;
47737;SDS011;33502;47.182;27.506;2023-02-15T16:12:30;8.98;;;4.65;;
47737;SDS011;33502;47.182;27.506;2023-02-15T16:14:58;8.48;;;4.97;;
47737;SDS011;33502;47.182;27.506;2023-02-15T16:17:30;6.38;;;4.03;;
47737;SDS011;33502;47.182;27.506;2023-02-15T16:20:03;10.15;;;5.38;;
47737;SDS011;33502;47.182;27.506;2023-02-15T16:22:33;12.07;;;5.95;;
47737;SDS011;33502;47.182;27.506;2023-02-15T16:28:07;9.88;;;5.32;;
47737;SDS011;33502;47.182;27.506;2023-02-15T16:30:36;7.93;;;4.57;;
47737;SDS011;33502;47.182;27.506;2023-02-15T16:33:06;9.82;;;4.78;;
47737;SDS011;33502;47.182;27.506;2023-02-15T16:35:37;7.65;;;4.60;;
47737;SDS011;33502;47.182;27.506;2023-02-15T16:38:06;7.03;;;4.70;;
47737;SDS011;33502;47.182;27.506;2023-02-15T16:43:24;8.70;;;4.07;;
47737;SDS011;33502;47.182;27.506;2023-02-15T16:45:58;9.05;;;4.65;;
47737;SDS011;33502;47.182;27.506;2023-02-15T16:48:30;10.75;;;6.47;;
47737;SDS011;33502;47.182;27.506;2023-02-15T16:50:58;8.25;;;4.70;;
47737;SDS011;33502;47.182;27.506;2023-02-15T16:53:26;9.65;;;5.40;;
47737;SDS011;33502;47.182;27.506;2023-02-15T16:55:54;10.25;;;5.25;;
47737;SDS011;33502;47.182;27.506;2023-02-15T16:58:25;10.95;;;4.80;;
47737;SDS011;33502;47.182;27.506;2023-02-15T17:00:59;6.70;;;3.63;;
47737;SDS011;33502;47.182;27.506;2023-02-15T17:03:27;9.10;;;4.90;;
47737;SDS011;33502;47.182;27.506;2023-02-15T17:05:58;10.15;;;4.95;;
47737;SDS011;33502;47.182;27.506;2023-02-15T17:08:27;9.60;;;5.05;;
47737;SDS011;33502;47.182;27.506;2023-02-15T17:16:32;9.38;;;5.75;;
47737;SDS011;33502;47.182;27.506;2023-02-15T17:19:13;13.63;;;6.13;;
47737;SDS011;33502;47.182;27.506;2023-02-15T17:22:05;12.63;;;7.25;;
47737;SDS011;33502;47.182;27.506;2023-02-15T17:27:12;8.18;;;5.45;;
47737;SDS011;33502;47.182;27.506;2023-02-15T17:29:45;8.80;;;5.82;;
47737;SDS011;33502;47.182;27.506;2023-02-15T17:32:23;12.98;;;5.93;;
47737;SDS011;33502;47.182;27.506;2023-02-15T17:37:50;12.40;;;4.90;;
47737;SDS011;33502;47.182;27.506;2023-02-15T17:40:27;9.90;;;5.20;;
47737;SDS011;33502;47.182;27.506;2023-02-15T17:42:58;10.35;;;6.22;;
47737;SDS011;33502;47.182;27.506;2023-02-15T17:45:31;14.63;;;7.40;;
47737;SDS011;33502;47.182;27.506;2023-02-15T17:48:01;14.98;;;6.97;;
47737;SDS011;33502;47.182;27.506;2023-02-15T17:50:28;17.30;;;8.70;;
47737;SDS011;33502;47.182;27.506;2023-02-15T17:52:55;19.13;;;7.82;;
47737;SDS011;33502;47.182;27.506;2023-02-15T17:55:25;17.02;;;7.97;;
47737;SDS011;33502;47.182;27.506;2023-02-15T17:58:13;14.63;;;7.22;;
47737;SDS011;33502;47.182;27.506;2023-02-15T18:00:46;12.60;;;6.68;;
47737;SDS011;33502;47.182;27.506;2023-02-15T18:03:42;10.70;;;6.07;;
47737;SDS011;33502;47.182;27.506;2023-02-15T18:06:29;15.32;;;7.15;;
47737;SDS011;33502;47.182;27.506;2023-02-15T18:09:19;11.05;;;6.35;;
47737;SDS011;33502;47.182;27.506;2023-02-15T18:14:50;14.20;;;7.80;;